createdAt,value
2018-06-18T00:00:38.951Z,1016.94
2018-06-18T00:01:38.976Z,1016.96
2018-06-18T00:02:38.998Z,1016.97
2018-06-18T00:03:39.024Z,1016.98
2018-06-18T00:04:39.043Z,1016.98
2018-06-18T00:05:39.067Z,1016.95
2018-06-18T00:06:39.095Z,1017.01
2018-06-18T00:07:39.115Z,1016.98
2018-06-18T00:08:39.135Z,1016.99
2018-06-18T00:09:39.159Z,1017.04
2018-06-18T00:10:39.180Z,1016.99
2018-06-18T00:11:39.204Z,1017.05
2018-06-18T00:12:39.227Z,1017.09
2018-06-18T00:13:39.251Z,1017.10
2018-06-18T00:14:39.275Z,1017.09
2018-06-18T00:15:39.296Z,1017.10
2018-06-18T00:16:39.323Z,1017.07
2018-06-18T00:17:39.342Z,1017.09
2018-06-18T00:18:39.365Z,1017.10
2018-06-18T00:19:39.391Z,1017.07
2018-06-18T00:20:39.415Z,1017.10
2018-06-18T00:21:39.435Z,1017.11
2018-06-18T00:22:39.457Z,1017.12
2018-06-18T00:23:39.484Z,1017.10
2018-06-18T00:24:39.505Z,1017.16
2018-06-18T00:25:39.527Z,1017.14
2018-06-18T00:26:39.549Z,1017.13
2018-06-18T00:27:39.575Z,1017.16
2018-06-18T00:28:39.596Z,1017.15
2018-06-18T00:29:39.620Z,1017.15
2018-06-18T00:30:39.641Z,1017.14
2018-06-18T00:31:39.665Z,1017.14
2018-06-18T00:32:39.687Z,1017.10
2018-06-18T00:33:39.718Z,1017.10
2018-06-18T00:34:39.732Z,1017.13
2018-06-18T00:35:39.757Z,1017.15
2018-06-18T00:36:39.780Z,1017.18
2018-06-18T00:37:39.808Z,1017.18
2018-06-18T00:38:39.828Z,1017.17
2018-06-18T00:39:39.852Z,1017.18
2018-06-18T00:40:39.872Z,1017.17
2018-06-18T00:41:39.899Z,1017.23
2018-06-18T00:42:39.920Z,1017.16
2018-06-18T00:43:39.942Z,1017.22
2018-06-18T00:44:39.963Z,1017.16
2018-06-18T00:45:39.987Z,1017.23
2018-06-18T00:46:40.010Z,1017.25
2018-06-18T00:47:40.032Z,1017.23
2018-06-18T00:48:40.057Z,1017.23
2018-06-18T00:49:40.080Z,1017.23
2018-06-18T00:50:40.102Z,1017.28
2018-06-18T00:51:40.124Z,1017.28
2018-06-18T00:52:40.147Z,1017.29
2018-06-18T00:53:40.172Z,1017.28
2018-06-18T00:54:40.193Z,1017.27
2018-06-18T00:55:40.216Z,1017.26
2018-06-18T00:56:40.241Z,1017.22
2018-06-18T00:57:40.262Z,1017.21
2018-06-18T00:58:40.285Z,1017.19
2018-06-18T00:59:40.308Z,1017.11
2018-06-18T01:00:40.330Z,1017.07
2018-06-18T01:01:40.355Z,1017.05
2018-06-18T01:02:40.379Z,1017.06
2018-06-18T01:03:40.403Z,1017.05
2018-06-18T01:04:40.424Z,1017.03
2018-06-18T01:05:40.447Z,1017.03
2018-06-18T01:06:40.470Z,1017.04
2018-06-18T01:07:40.496Z,1016.94
2018-06-18T01:08:40.514Z,1016.95
2018-06-18T01:09:40.540Z,1016.96
2018-06-18T01:10:40.560Z,1016.87
2018-06-18T01:11:40.584Z,1016.86
2018-06-18T01:12:40.607Z,1016.85
2018-06-18T01:13:40.631Z,1016.89
2018-06-18T01:14:40.652Z,1016.85
2018-06-18T01:15:40.678Z,1016.83
2018-06-18T01:16:40.699Z,1016.82
2018-06-18T01:17:40.724Z,1016.85
2018-06-18T01:18:40.747Z,1016.79
2018-06-18T01:19:40.773Z,1016.82
2018-06-18T01:20:40.795Z,1016.85
2018-06-18T01:21:40.815Z,1016.83
2018-06-18T01:22:40.843Z,1016.82
2018-06-18T01:23:40.860Z,1016.86
2018-06-18T01:24:40.883Z,1016.82
2018-06-18T01:25:40.909Z,1016.84
2018-06-18T01:26:40.928Z,1016.86
2018-06-18T01:27:40.954Z,1016.88
2018-06-18T01:28:40.983Z,1016.86
2018-06-18T01:29:41.001Z,1016.84
2018-06-18T01:30:41.020Z,1016.85
2018-06-18T01:31:41.044Z,1016.85
2018-06-18T01:32:41.069Z,1016.89
2018-06-18T01:33:41.089Z,1016.85
2018-06-18T01:34:41.117Z,1016.86
2018-06-18T01:35:41.135Z,1016.89
2018-06-18T01:36:41.159Z,1016.87
2018-06-18T01:37:41.182Z,1016.84
2018-06-18T01:38:41.206Z,1016.81
2018-06-18T01:39:41.225Z,1016.79
2018-06-18T01:40:41.252Z,1016.75
2018-06-18T01:41:41.274Z,1016.79
2018-06-18T01:42:41.296Z,1016.83
2018-06-18T01:43:41.319Z,1016.78
2018-06-18T01:44:41.342Z,1016.75
2018-06-18T01:45:41.370Z,1016.73
2018-06-18T01:46:41.387Z,1016.69
2018-06-18T01:47:41.415Z,1016.75
2018-06-18T01:48:41.434Z,1016.77
2018-06-18T01:49:41.459Z,1016.75
2018-06-18T01:50:41.482Z,1016.75
2018-06-18T01:51:41.503Z,1016.75
2018-06-18T01:52:41.526Z,1016.73
2018-06-18T01:53:41.550Z,1016.70
2018-06-18T01:54:41.571Z,1016.71
2018-06-18T01:55:41.595Z,1016.72
2018-06-18T01:56:41.618Z,1016.70
2018-06-18T01:57:41.643Z,1016.75
2018-06-18T01:58:41.667Z,1016.75
2018-06-18T01:59:41.687Z,1016.73
2018-06-18T02:00:41.714Z,1016.72
2018-06-18T02:01:41.733Z,1016.72
2018-06-18T02:02:41.755Z,1016.73
2018-06-18T02:03:41.778Z,1016.73
2018-06-18T02:04:41.801Z,1016.70
2018-06-18T02:05:41.827Z,1016.69
2018-06-18T02:06:41.848Z,1016.69
2018-06-18T02:07:41.870Z,1016.71
2018-06-18T02:08:41.896Z,1016.70
2018-06-18T02:09:41.916Z,1016.69
2018-06-18T02:10:41.939Z,1016.69
2018-06-18T02:11:41.962Z,1016.74
2018-06-18T02:12:41.985Z,1016.78
2018-06-18T02:13:42.010Z,1016.85
2018-06-18T02:14:42.033Z,1016.86
2018-06-18T02:15:42.054Z,1016.85
2018-06-18T02:16:42.079Z,1016.79
2018-06-18T02:17:42.104Z,1016.78
2018-06-18T02:18:42.123Z,1016.74
2018-06-18T02:19:42.145Z,1016.73
2018-06-18T02:20:42.169Z,1016.80
2018-06-18T02:21:42.196Z,1016.80
2018-06-18T02:22:42.214Z,1016.78
2018-06-18T02:23:42.237Z,1016.76
2018-06-18T02:24:42.261Z,1016.80
2018-06-18T02:25:42.290Z,1016.79
2018-06-18T02:26:42.305Z,1016.78
2018-06-18T02:27:42.332Z,1016.79
2018-06-18T02:28:42.352Z,1016.81
2018-06-18T02:29:42.376Z,1016.79
2018-06-18T02:30:42.401Z,1016.83
2018-06-18T02:31:42.424Z,1016.86
2018-06-18T02:32:42.452Z,1016.83
2018-06-18T02:33:42.468Z,1016.82
2018-06-18T02:34:42.491Z,1016.86
2018-06-18T02:35:42.515Z,1016.82
2018-06-18T02:36:42.536Z,1016.81
2018-06-18T02:37:42.561Z,1016.84
2018-06-18T02:38:42.583Z,1016.82
2018-06-18T02:39:42.606Z,1016.88
2018-06-18T02:40:42.628Z,1016.87
2018-06-18T02:41:42.651Z,1016.85
2018-06-18T02:42:42.673Z,1016.86
2018-06-18T02:43:42.696Z,1016.87
2018-06-18T02:44:42.726Z,1016.88
2018-06-18T02:45:42.744Z,1016.87
2018-06-18T02:46:42.765Z,1016.89
2018-06-18T02:47:42.788Z,1016.87
2018-06-18T02:48:42.812Z,1016.89
2018-06-18T02:49:42.834Z,1016.84
2018-06-18T02:50:42.857Z,1016.89
2018-06-18T02:51:42.880Z,1016.88
2018-06-18T02:52:42.902Z,1016.88
2018-06-18T02:53:42.926Z,1016.87
2018-06-18T02:54:42.950Z,1016.83
2018-06-18T02:55:42.970Z,1016.84
2018-06-18T02:56:42.994Z,1016.83
2018-06-18T02:57:43.017Z,1016.86
2018-06-18T02:58:43.039Z,1016.84
2018-06-18T02:59:43.063Z,1016.83
2018-06-18T03:00:43.090Z,1016.87
2018-06-18T03:01:43.109Z,1016.82
2018-06-18T03:02:43.137Z,1016.76
2018-06-18T03:03:43.156Z,1016.77
2018-06-18T03:04:43.179Z,1016.79
2018-06-18T03:05:43.203Z,1016.78
2018-06-18T03:06:43.222Z,1016.82
2018-06-18T03:07:43.249Z,1016.82
2018-06-18T03:08:43.269Z,1016.79
2018-06-18T03:09:43.292Z,1016.79
2018-06-18T03:10:43.313Z,1016.80
2018-06-18T03:11:43.340Z,1016.79
2018-06-18T03:12:43.361Z,1016.77
2018-06-18T03:13:43.390Z,1016.77
2018-06-18T03:14:43.406Z,1016.76
2018-06-18T03:15:43.428Z,1016.82
2018-06-18T03:16:43.473Z,1016.83
2018-06-18T03:17:43.475Z,1016.79
2018-06-18T03:18:43.499Z,1016.81
2018-06-18T03:19:43.520Z,1016.81
2018-06-18T03:20:43.542Z,1016.80
2018-06-18T03:21:43.566Z,1016.85
2018-06-18T03:22:43.588Z,1016.83
2018-06-18T03:23:43.611Z,1016.80
2018-06-18T03:24:43.632Z,1016.77
2018-06-18T03:25:43.658Z,1016.76
2018-06-18T03:26:43.680Z,1016.77
2018-06-18T03:27:43.702Z,1016.78
2018-06-18T03:28:43.726Z,1016.77
2018-06-18T03:29:43.749Z,1016.78
2018-06-18T03:30:43.771Z,1016.77
2018-06-18T03:31:43.793Z,1016.75
2018-06-18T03:32:43.817Z,1016.79
2018-06-18T03:33:43.840Z,1016.79
2018-06-18T03:34:43.860Z,1016.85
2018-06-18T03:35:43.886Z,1016.88
2018-06-18T03:36:43.908Z,1016.91
2018-06-18T03:37:43.940Z,1016.91
2018-06-18T03:38:43.953Z,1016.91
2018-06-18T03:39:43.980Z,1016.92
2018-06-18T03:40:44.007Z,1016.89
2018-06-18T03:41:44.023Z,1016.86
2018-06-18T03:42:44.044Z,1016.85
2018-06-18T03:43:44.068Z,1016.93
2018-06-18T03:44:44.089Z,1016.91
2018-06-18T03:45:44.115Z,1016.96
2018-06-18T03:46:44.140Z,1016.97
2018-06-18T03:47:44.159Z,1016.95
2018-06-18T03:48:44.187Z,1016.97
2018-06-18T03:49:44.206Z,1017.00
2018-06-18T03:50:44.229Z,1016.98
2018-06-18T03:51:44.253Z,1016.95
2018-06-18T03:52:44.273Z,1017.01
2018-06-18T03:53:44.303Z,1016.95
2018-06-18T03:54:44.319Z,1016.98
2018-06-18T03:55:44.341Z,1016.94
2018-06-18T03:56:44.365Z,1016.97
2018-06-18T03:57:44.389Z,1016.97
2018-06-18T03:58:44.412Z,1016.98
2018-06-18T03:59:44.433Z,1016.93
2018-06-18T04:00:44.457Z,1016.96
2018-06-18T04:01:44.480Z,1016.94
2018-06-18T04:02:44.501Z,1016.96
2018-06-18T04:03:44.533Z,1016.95
2018-06-18T04:04:44.547Z,1017.01
2018-06-18T04:05:44.572Z,1016.99
2018-06-18T04:06:44.594Z,1016.98
2018-06-18T04:07:44.618Z,1016.93
2018-06-18T04:08:44.640Z,1016.96
2018-06-18T04:09:44.664Z,1016.95
2018-06-18T04:10:44.685Z,1016.98
2018-06-18T04:11:44.709Z,1016.98
2018-06-18T04:12:44.733Z,1017.05
2018-06-18T04:13:44.758Z,1017.06
2018-06-18T04:14:44.778Z,1017.04
2018-06-18T04:15:44.801Z,1017.07
2018-06-18T04:16:44.828Z,1017.08
2018-06-18T04:17:44.848Z,1017.05
2018-06-18T04:18:44.873Z,1017.00
2018-06-18T04:19:44.892Z,1017.02
2018-06-18T04:20:44.915Z,1017.02
2018-06-18T04:21:44.939Z,1017.06
2018-06-18T04:22:44.964Z,1017.05
2018-06-18T04:23:44.986Z,1017.00
2018-06-18T04:24:45.042Z,1017.00
2018-06-18T04:25:45.031Z,1017.01
2018-06-18T04:26:45.057Z,1017.07
2018-06-18T04:27:45.076Z,1017.04
2018-06-18T04:28:45.099Z,1017.04
2018-06-18T04:29:45.131Z,1017.03
2018-06-18T04:30:45.143Z,1016.99
2018-06-18T04:31:45.169Z,1016.98
2018-06-18T04:32:45.195Z,1016.96
2018-06-18T04:33:45.214Z,1016.97
2018-06-18T04:34:45.235Z,1016.95
2018-06-18T04:35:45.263Z,1016.93
2018-06-18T04:36:45.287Z,1016.96
2018-06-18T04:37:45.329Z,1016.93
2018-06-18T04:38:45.329Z,1016.95
2018-06-18T04:39:45.354Z,1016.96
2018-06-18T04:40:45.374Z,1016.99
2018-06-18T04:41:45.398Z,1016.92
2018-06-18T04:42:45.422Z,1016.91
2018-06-18T04:43:45.446Z,1016.87
2018-06-18T04:44:45.524Z,1016.88
2018-06-18T04:45:45.507Z,1016.86
2018-06-18T04:46:45.513Z,1016.86
2018-06-18T04:47:45.540Z,1016.84
2018-06-18T04:48:45.559Z,1016.84
2018-06-18T04:49:45.582Z,1016.85
2018-06-18T04:50:45.605Z,1016.86
2018-06-18T04:51:45.628Z,1016.89
2018-06-18T04:52:45.653Z,1016.87
2018-06-18T04:53:45.675Z,1016.88
2018-06-18T04:54:45.699Z,1016.92
2018-06-18T04:55:45.720Z,1016.94
2018-06-18T04:56:45.815Z,1016.97
2018-06-18T04:57:45.772Z,1016.98
2018-06-18T04:58:45.790Z,1017.02
2018-06-18T04:59:45.815Z,1017.01
2018-06-18T05:00:45.838Z,1016.97
2018-06-18T05:01:45.860Z,1016.96
2018-06-18T05:02:45.885Z,1016.98
2018-06-18T05:03:45.909Z,1016.94
2018-06-18T05:04:45.931Z,1016.94
2018-06-18T05:05:45.960Z,1016.93
2018-06-18T05:06:46.028Z,1016.99
2018-06-18T05:07:46.005Z,1017.00
2018-06-18T05:08:46.029Z,1017.04
2018-06-18T05:09:46.050Z,1017.01
2018-06-18T05:10:46.072Z,1017.05
2018-06-18T05:11:46.102Z,1017.01
2018-06-18T05:12:46.119Z,1017.01
2018-06-18T05:13:46.144Z,1016.95
2018-06-18T05:14:46.166Z,1017.00
2018-06-18T05:15:46.192Z,1016.94
2018-06-18T05:16:46.234Z,1016.86
2018-06-18T05:17:46.237Z,1016.80
2018-06-18T05:18:46.261Z,1016.76
2018-06-18T05:19:46.289Z,1016.67
2018-06-18T05:20:46.344Z,1016.66
2018-06-18T05:21:46.332Z,1016.67
2018-06-18T05:22:46.355Z,1016.67
2018-06-18T05:23:46.378Z,1016.65
2018-06-18T05:24:46.402Z,1016.71
2018-06-18T05:25:46.427Z,1016.64
2018-06-18T05:26:46.451Z,1016.63
2018-06-18T05:27:46.476Z,1016.66
2018-06-18T05:28:46.498Z,1016.61
2018-06-18T05:29:46.521Z,1016.65
2018-06-18T05:30:46.545Z,1016.67
2018-06-18T05:31:46.574Z,1016.67
2018-06-18T05:32:46.589Z,1016.71
2018-06-18T05:33:46.619Z,1016.71
2018-06-18T05:34:46.639Z,1016.71
2018-06-18T05:35:46.661Z,1016.69
2018-06-18T05:36:46.691Z,1016.66
2018-06-18T05:37:46.711Z,1016.69
2018-06-18T05:38:46.733Z,1016.66
2018-06-18T05:39:46.754Z,1016.66
2018-06-18T05:40:46.779Z,1016.66
2018-06-18T05:41:46.804Z,1016.69
2018-06-18T05:42:46.829Z,1016.70
2018-06-18T05:43:46.851Z,1016.70
2018-06-18T05:44:46.873Z,1016.70
2018-06-18T05:45:46.898Z,1016.67
2018-06-18T05:46:46.928Z,1016.64
2018-06-18T05:47:46.944Z,1016.70
2018-06-18T05:48:46.967Z,1016.71
2018-06-18T05:49:46.991Z,1016.72
2018-06-18T05:50:47.014Z,1016.71
2018-06-18T05:51:47.038Z,1016.70
2018-06-18T05:52:47.069Z,1016.70
2018-06-18T05:53:47.089Z,1016.69
2018-06-18T05:54:47.108Z,1016.73
2018-06-18T05:55:47.137Z,1016.78
2018-06-18T05:56:47.158Z,1016.85
2018-06-18T05:57:47.183Z,1016.85
2018-06-18T05:58:47.204Z,1016.88
2018-06-18T05:59:47.227Z,1016.91
2018-06-18T06:00:47.252Z,1016.94
2018-06-18T06:01:47.276Z,1016.97
2018-06-18T06:02:47.307Z,1016.94
2018-06-18T06:03:47.324Z,1016.93
2018-06-18T06:04:47.352Z,1016.95
2018-06-18T06:05:47.371Z,1016.98
2018-06-18T06:06:47.395Z,1016.92
2018-06-18T06:07:47.421Z,1016.92
2018-06-18T06:08:47.443Z,1016.92
2018-06-18T06:09:47.467Z,1016.87
2018-06-18T06:10:47.492Z,1016.86
2018-06-18T06:11:47.513Z,1016.91
2018-06-18T06:12:47.542Z,1016.91
2018-06-18T06:13:47.566Z,1016.92
2018-06-18T06:14:47.586Z,1016.91
2018-06-18T06:15:47.609Z,1016.88
2018-06-18T06:16:47.642Z,1016.87
2018-06-18T06:17:47.658Z,1016.85
2018-06-18T06:18:47.682Z,1016.83
2018-06-18T06:19:47.705Z,1016.89
2018-06-18T06:20:47.730Z,1016.91
2018-06-18T06:21:47.754Z,1016.91
2018-06-18T06:22:47.777Z,1016.94
2018-06-18T06:23:47.806Z,1016.96
2018-06-18T06:24:47.827Z,1016.95
2018-06-18T06:25:47.851Z,1016.97
2018-06-18T06:26:47.876Z,1016.92
2018-06-18T06:27:47.896Z,1016.94
2018-06-18T06:28:47.920Z,1016.91
2018-06-18T06:29:47.948Z,1016.89
2018-06-18T06:30:47.965Z,1016.90
2018-06-18T06:31:47.992Z,1016.90
2018-06-18T06:32:48.019Z,1016.91
2018-06-18T06:33:48.040Z,1016.85
2018-06-18T06:34:48.063Z,1016.84
2018-06-18T06:35:48.087Z,1016.90
2018-06-18T06:36:48.116Z,1016.93
2018-06-18T06:37:48.135Z,1016.97
2018-06-18T06:38:48.160Z,1016.97
2018-06-18T06:39:48.181Z,1017.01
2018-06-18T06:40:48.206Z,1017.02
2018-06-18T06:41:48.230Z,1017.07
2018-06-18T06:42:48.252Z,1017.04
2018-06-18T06:43:48.292Z,1017.08
2018-06-18T06:44:48.305Z,1017.07
2018-06-18T06:45:48.327Z,1017.05
2018-06-18T06:46:48.361Z,1017.09
2018-06-18T06:47:48.372Z,1017.04
2018-06-18T06:48:48.404Z,1017.03
2018-06-18T06:49:48.427Z,1017.03
2018-06-18T06:50:48.497Z,1017.03
2018-06-18T06:51:48.469Z,1017.01
2018-06-18T06:52:48.491Z,1016.99
2018-06-18T06:53:48.517Z,1016.93
2018-06-18T06:54:48.542Z,1017.01
2018-06-18T06:55:48.563Z,1017.06
2018-06-18T06:56:48.590Z,1017.05
2018-06-18T06:57:48.615Z,1017.04
2018-06-18T06:58:48.638Z,1016.98
2018-06-18T06:59:48.661Z,1017.01
2018-06-18T07:00:48.703Z,1017.04
2018-06-18T07:01:48.710Z,1017.00
2018-06-18T07:02:48.733Z,1017.02
2018-06-18T07:03:48.769Z,1017.03
2018-06-18T07:04:48.781Z,1017.05
2018-06-18T07:05:48.807Z,1017.07
2018-06-18T07:06:48.832Z,1017.11
2018-06-18T07:07:48.854Z,1017.11
2018-06-18T07:08:48.878Z,1017.10
2018-06-18T07:09:48.905Z,1017.07
2018-06-18T07:10:48.926Z,1017.11
2018-06-18T07:11:48.951Z,1017.09
2018-06-18T07:12:48.980Z,1017.11
2018-06-18T07:13:49.001Z,1017.14
2018-06-18T07:14:49.024Z,1017.16
2018-06-18T07:15:49.062Z,1017.14
2018-06-18T07:16:49.077Z,1017.11
2018-06-18T07:17:49.098Z,1017.12
2018-06-18T07:18:49.143Z,1017.12
2018-06-18T07:19:49.148Z,1017.09
2018-06-18T07:20:49.174Z,1017.11
2018-06-18T07:21:49.197Z,1017.09
2018-06-18T07:22:49.220Z,1017.11
2018-06-18T07:23:49.241Z,1017.09
2018-06-18T07:24:49.285Z,1017.10
2018-06-18T07:25:49.296Z,1017.09
2018-06-18T07:26:49.320Z,1017.14
2018-06-18T07:27:49.344Z,1017.12
2018-06-18T07:28:49.366Z,1017.09
2018-06-18T07:29:49.420Z,1017.15
2018-06-18T07:30:49.433Z,1017.11
2018-06-18T07:31:49.438Z,1017.11
2018-06-18T07:32:49.463Z,1017.12
2018-06-18T07:33:49.489Z,1017.15
2018-06-18T07:34:49.513Z,1017.18
2018-06-18T07:35:49.539Z,1017.23
2018-06-18T07:36:49.564Z,1017.19
2018-06-18T07:37:49.583Z,1017.19
2018-06-18T07:38:49.612Z,1017.22
2018-06-18T07:39:49.635Z,1017.18
2018-06-18T07:40:49.660Z,1017.21
2018-06-18T07:41:49.686Z,1017.25
2018-06-18T07:42:49.709Z,1017.25
2018-06-18T07:43:49.752Z,1017.20
2018-06-18T07:44:49.758Z,1017.25
2018-06-18T07:45:49.781Z,1017.24
2018-06-18T07:46:49.806Z,1017.25
2018-06-18T07:47:49.830Z,1017.28
2018-06-18T07:48:49.860Z,1017.27
2018-06-18T07:49:49.883Z,1017.25
2018-06-18T07:50:49.903Z,1017.26
2018-06-18T07:51:50.059Z,1017.23
2018-06-18T07:52:49.957Z,1017.21
2018-06-18T07:53:49.979Z,1017.18
2018-06-18T07:54:50.008Z,1017.15
2018-06-18T07:55:50.036Z,1017.25
2018-06-18T07:56:50.069Z,1017.23
2018-06-18T07:57:50.075Z,1017.22
2018-06-18T07:58:50.098Z,1017.21
2018-06-18T07:59:50.124Z,1017.19
2018-06-18T08:00:50.159Z,1017.20
2018-06-18T08:01:50.179Z,1017.11
2018-06-18T08:02:50.199Z,1017.13
2018-06-18T08:03:50.249Z,1017.10
2018-06-18T08:04:50.251Z,1017.15
2018-06-18T08:05:50.270Z,1017.09
2018-06-18T08:06:50.296Z,1017.01
2018-06-18T08:07:50.335Z,1017.03
2018-06-18T08:08:50.397Z,1017.03
2018-06-18T08:09:50.428Z,1016.98
2018-06-18T08:10:50.406Z,1017.03
2018-06-18T08:11:50.437Z,1016.97
2018-06-18T08:12:50.444Z,1016.96
2018-06-18T08:13:50.488Z,1016.97
2018-06-18T08:14:50.488Z,1017.00
2018-06-18T08:15:50.514Z,1016.95
2018-06-18T08:16:50.536Z,1016.94
2018-06-18T08:17:50.564Z,1016.96
2018-06-18T08:18:50.587Z,1017.01
2018-06-18T08:19:50.610Z,1017.01
2018-06-18T08:20:50.627Z,1017.05
2018-06-18T08:21:50.664Z,1016.98
2018-06-18T08:22:50.682Z,1016.98
2018-06-18T08:23:50.776Z,1017.00
2018-06-18T08:24:50.746Z,1017.01
2018-06-18T08:25:50.763Z,1016.98
2018-06-18T08:26:50.795Z,1016.99
2018-06-18T08:27:50.834Z,1016.95
2018-06-18T08:28:50.823Z,1016.97
2018-06-18T08:29:50.853Z,1016.99
2018-06-18T08:30:50.888Z,1017.01
2018-06-18T08:31:50.899Z,1016.98
2018-06-18T08:32:50.928Z,1017.05
2018-06-18T08:33:50.956Z,1017.03
2018-06-18T08:34:50.985Z,1017.01
2018-06-18T08:35:50.997Z,1017.00
2018-06-18T08:36:51.049Z,1017.02
2018-06-18T08:37:51.056Z,1017.05
2018-06-18T08:38:51.072Z,1017.04
2018-06-18T08:39:51.105Z,1017.03
2018-06-18T08:40:51.120Z,1017.04
2018-06-18T08:41:51.142Z,1017.10
2018-06-18T08:42:51.167Z,1017.10
2018-06-18T08:43:51.195Z,1017.08
2018-06-18T08:44:51.228Z,1017.08
2018-06-18T08:45:51.250Z,1017.12
2018-06-18T08:46:51.265Z,1017.09
2018-06-18T08:47:51.288Z,1017.06
2018-06-18T08:48:51.313Z,1017.06
2018-06-18T08:49:51.336Z,1017.10
2018-06-18T08:50:51.367Z,1017.04
2018-06-18T08:51:51.379Z,1017.11
2018-06-18T08:52:51.409Z,1017.08
2018-06-18T08:53:51.440Z,1017.17
2018-06-18T08:54:51.458Z,1017.20
2018-06-18T08:55:51.531Z,1017.19
2018-06-18T08:56:51.507Z,1017.18
2018-06-18T08:57:51.567Z,1017.15
2018-06-18T08:58:51.555Z,1017.12
2018-06-18T08:59:51.577Z,1017.18
2018-06-18T09:00:51.613Z,1017.18
2018-06-18T09:01:51.662Z,1017.21
2018-06-18T09:02:51.658Z,1017.22
2018-06-18T09:03:51.690Z,1017.20
2018-06-18T09:04:51.701Z,1017.24
2018-06-18T09:05:51.725Z,1017.21
2018-06-18T09:06:51.748Z,1017.26
2018-06-18T09:07:51.774Z,1017.24
2018-06-18T09:08:51.996Z,1017.27
2018-06-18T09:09:51.896Z,1017.28
2018-06-18T09:10:51.858Z,1017.24
2018-06-18T09:11:51.883Z,1017.29
2018-06-18T09:12:51.890Z,1017.24
2018-06-18T09:13:51.922Z,1017.26
2018-06-18T09:14:51.966Z,1017.26
2018-06-18T09:15:51.984Z,1017.27
2018-06-18T09:16:51.989Z,1017.31
2018-06-18T09:17:52.133Z,1017.33
2018-06-18T09:18:52.037Z,1017.36
2018-06-18T09:19:52.066Z,1017.35
2018-06-18T09:20:52.087Z,1017.34
2018-06-18T09:21:52.127Z,1017.35
2018-06-18T09:22:52.134Z,1017.30
2018-06-18T09:23:52.209Z,1017.30
2018-06-18T09:24:52.181Z,1017.31
2018-06-18T09:25:52.206Z,1017.30
2018-06-18T09:26:52.235Z,1017.34
2018-06-18T09:27:52.261Z,1017.34
2018-06-18T09:28:52.307Z,1017.37
2018-06-18T09:29:52.306Z,1017.40
2018-06-18T09:30:52.423Z,1017.38
2018-06-18T09:31:52.355Z,1017.41
2018-06-18T09:32:52.377Z,1017.39
2018-06-18T09:33:52.406Z,1017.39
2018-06-18T09:34:52.429Z,1017.39
2018-06-18T09:35:52.481Z,1017.39
2018-06-18T09:36:52.472Z,1017.38
2018-06-18T09:37:52.500Z,1017.44
2018-06-18T09:38:52.517Z,1017.44
2018-06-18T09:39:52.546Z,1017.40
2018-06-18T09:40:52.568Z,1017.36
2018-06-18T09:41:52.602Z,1017.38
2018-06-18T09:42:52.625Z,1017.34
2018-06-18T09:43:52.644Z,1017.38
2018-06-18T09:44:52.666Z,1017.33
2018-06-18T09:45:52.710Z,1017.33
2018-06-18T09:46:52.715Z,1017.32
2018-06-18T09:47:52.738Z,1017.31
2018-06-18T09:48:53.306Z,1017.33
2018-06-18T09:49:52.797Z,1017.32
2018-06-18T09:50:52.815Z,1017.29
2018-06-18T09:51:52.839Z,1017.34
2018-06-18T09:52:52.870Z,1017.39
2018-06-18T09:53:52.887Z,1017.34
2018-06-18T09:54:53.825Z,1017.37
2018-06-18T09:56:00.821Z,1017.37
2018-06-18T09:56:52.963Z,1017.35
2018-06-18T09:57:59.821Z,1017.35
2018-06-18T09:58:54.817Z,1017.34
2018-06-18T09:59:53.031Z,1017.35
2018-06-18T10:00:53.055Z,1017.36
2018-06-18T10:01:53.082Z,1017.35
2018-06-18T10:02:53.102Z,1017.33
2018-06-18T10:03:53.127Z,1017.32
2018-06-18T10:04:53.148Z,1017.35
2018-06-18T10:05:53.176Z,1017.30
2018-06-18T10:06:53.202Z,1017.31
2018-06-18T10:07:53.216Z,1017.32
2018-06-18T10:08:53.262Z,1017.32
2018-06-18T10:09:53.273Z,1017.39
2018-06-18T10:10:53.302Z,1017.38
2018-06-18T10:11:53.328Z,1017.42
2018-06-18T10:12:53.344Z,1017.36
2018-06-18T10:13:53.394Z,1017.37
2018-06-18T10:14:53.395Z,1017.36
2018-06-18T10:15:53.419Z,1017.36
2018-06-18T10:16:53.447Z,1017.38
2018-06-18T10:17:53.469Z,1017.38
2018-06-18T10:18:53.531Z,1017.37
2018-06-18T10:19:53.524Z,1017.38
2018-06-18T10:20:53.655Z,1017.43
2018-06-18T10:21:53.566Z,1017.44
2018-06-18T10:22:53.592Z,1017.40
2018-06-18T10:23:53.613Z,1017.42
2018-06-18T10:24:53.636Z,1017.40
2018-06-18T10:25:53.669Z,1017.42
2018-06-18T10:26:53.686Z,1017.39
2018-06-18T10:27:53.713Z,1017.41
2018-06-18T10:28:53.731Z,1017.41
2018-06-18T10:29:53.763Z,1017.45
2018-06-18T10:30:53.809Z,1017.42
2018-06-18T10:31:53.815Z,1017.40
2018-06-18T10:32:53.840Z,1017.41
2018-06-18T10:33:53.861Z,1017.48
2018-06-18T10:34:53.887Z,1017.47
2018-06-18T10:35:53.912Z,1017.50
2018-06-18T10:36:53.935Z,1017.43
2018-06-18T10:37:53.961Z,1017.46
2018-06-18T10:38:54.026Z,1017.52
2018-06-18T10:39:54.000Z,1017.51
2018-06-18T10:40:54.067Z,1017.45
2018-06-18T10:41:54.060Z,1017.46
2018-06-18T10:42:54.084Z,1017.47
2018-06-18T10:43:54.156Z,1017.42
2018-06-18T10:44:54.136Z,1017.43
2018-06-18T10:45:54.165Z,1017.38
2018-06-18T10:46:54.186Z,1017.39
2018-06-18T10:47:54.452Z,1017.43
2018-06-18T10:48:54.259Z,1017.41
2018-06-18T10:49:54.307Z,1017.42
2018-06-18T10:50:54.274Z,1017.46
2018-06-18T10:51:54.325Z,1017.40
2018-06-18T10:52:54.329Z,1017.39
2018-06-18T10:53:54.353Z,1017.40
2018-06-18T10:54:54.375Z,1017.42
2018-06-18T10:55:54.401Z,1017.44
2018-06-18T10:56:54.441Z,1017.47
2018-06-18T10:57:54.451Z,1017.45
2018-06-18T10:58:54.475Z,1017.48
2018-06-18T10:59:54.506Z,1017.46
2018-06-18T11:00:54.526Z,1017.45
2018-06-18T11:01:54.551Z,1017.47
2018-06-18T11:02:54.574Z,1017.43
2018-06-18T11:03:54.605Z,1017.40
2018-06-18T11:04:54.626Z,1017.37
2018-06-18T11:05:54.653Z,1017.36
2018-06-18T11:06:54.679Z,1017.35
2018-06-18T11:07:54.698Z,1017.29
2018-06-18T11:08:54.727Z,1017.30
2018-06-18T11:09:54.751Z,1017.25
2018-06-18T11:10:54.773Z,1017.21
2018-06-18T11:11:54.796Z,1017.23
2018-06-18T11:12:54.822Z,1017.18
2018-06-18T11:13:54.849Z,1017.22
2018-06-18T11:14:54.871Z,1017.18
2018-06-18T11:15:54.938Z,1017.12
2018-06-18T11:16:55.106Z,1017.16
2018-06-18T11:17:54.946Z,1017.10
2018-06-18T11:18:54.973Z,1017.13
2018-06-18T11:19:54.995Z,1017.11
2018-06-18T11:20:55.022Z,1017.09
2018-06-18T11:21:55.075Z,1017.09
2018-06-18T11:22:55.080Z,1017.13
2018-06-18T11:23:55.103Z,1017.10
2018-06-18T11:24:55.126Z,1017.12
2018-06-18T11:25:55.147Z,1017.15
2018-06-18T11:26:55.218Z,1017.13
2018-06-18T11:27:55.195Z,1017.14
2018-06-18T11:28:55.221Z,1017.18
2018-06-18T11:29:55.269Z,1017.14
2018-06-18T11:30:55.275Z,1017.22
2018-06-18T11:31:55.293Z,1017.18
2018-06-18T11:32:55.340Z,1017.16
2018-06-18T11:33:55.351Z,1017.21
2018-06-18T11:34:55.431Z,1017.16
2018-06-18T11:35:55.387Z,1017.15
2018-06-18T11:36:55.432Z,1017.14
2018-06-18T11:37:55.446Z,1017.10
2018-06-18T11:38:55.468Z,1017.06
2018-06-18T11:39:55.496Z,1017.08
2018-06-18T11:40:55.518Z,1017.03
2018-06-18T11:41:55.634Z,1017.10
2018-06-18T11:42:55.568Z,1017.11
2018-06-18T11:43:55.593Z,1017.08
2018-06-18T11:44:55.620Z,1017.08
2018-06-18T11:45:55.705Z,1017.05
2018-06-18T11:46:55.667Z,1016.93
2018-06-18T11:47:55.756Z,1016.95
2018-06-18T11:48:55.717Z,1016.94
2018-06-18T11:49:55.747Z,1016.95
2018-06-18T11:50:55.771Z,1016.85
2018-06-18T11:51:55.792Z,1016.90
2018-06-18T11:52:55.821Z,1016.94
2018-06-18T11:53:55.844Z,1016.91
2018-06-18T11:54:55.873Z,1016.94
2018-06-18T11:55:55.927Z,1016.89
2018-06-18T11:56:55.920Z,1016.85
2018-06-18T11:57:55.946Z,1016.89
2018-06-18T11:58:55.968Z,1016.85
2018-06-18T11:59:55.995Z,1016.87
2018-06-18T12:00:56.017Z,1016.91
2018-06-18T12:01:56.076Z,1016.89
2018-06-18T12:02:56.070Z,1016.89
2018-06-18T12:03:56.099Z,1016.95
2018-06-18T12:04:56.117Z,1016.89
2018-06-18T12:05:56.155Z,1016.84